Time;durP1;ratioP1;P1;durP2;ratioP2;P2;SDS_P1;SDS_P2;PMS_P1;PMS_P2;Temp;Humidity;BMP_temperature;BMP_pressure;BME280_temperature;BME280_humidity;BME280_pressure;Samples;Min_cycle;Max_cycle;Signal;HPM_P1;HPM_P2
2023/04/02 00:01:00;;;;;;;9.10;2.40;;;3.90;99.90;;;;;;5108188;28;20523;-78
2023/04/02 00:03:52;;;;;;;5.70;2.15;;;3.80;99.90;;;;;;5108662;28;20402;-78
2023/04/02 00:06:33;;;;;;;4.32;1.52;;;3.70;99.90;;;;;;5109113;28;20035;-78
2023/04/02 00:09:28;;;;;;;4.93;2.10;;;3.60;99.90;;;;;;5107714;28;20043;-79
2023/04/02 00:11:54;;;;;;;8.57;1.80;;;3.60;99.90;;;;;;5106034;28;20097;-78
2023/04/02 00:14:32;;;;;;;6.63;1.92;;;3.80;99.90;;;;;;5091417;28;20035;-78
2023/04/02 00:17:01;;;;;;;6.70;2.20;;;3.50;99.90;;;;;;5107523;28;20051;-78
2023/04/02 00:19:33;;;;;;;10.40;2.20;;;3.40;99.90;;;;;;5091810;28;20046;-78
2023/04/02 00:22:01;;;;;;;6.75;1.98;;;3.40;99.90;;;;;;5107755;28;20059;-78
2023/04/02 00:24:26;;;;;;;7.63;1.77;;;3.30;99.90;;;;;;5091161;28;20039;-78
2023/04/02 00:26:54;;;;;;;4.70;1.50;;;3.30;99.90;;;;;;5107943;28;20050;-78
2023/04/02 00:29:20;;;;;;;4.50;1.63;;;4.60;99.90;;;;;;5090794;28;20039;-78
2023/04/02 00:31:48;;;;;;;6.45;1.45;;;3.20;99.90;;;;;;5091604;28;20050;-78
2023/04/02 00:34:20;;;;;;;6.07;2.30;;;3.10;99.90;;;;;;5094686;27;20043;-78
2023/04/02 00:36:46;;;;;;;5.43;1.77;;;3.40;99.90;;;;;;5095230;27;20131;-78
2023/04/02 00:39:18;;;;;;;4.40;2.10;;;3.10;99.90;;;;;;5094776;27;20043;-78
2023/04/02 00:41:45;;;;;;;4.60;1.60;;;3.10;99.90;;;;;;5112230;27;20043;-78
2023/04/02 00:44:14;;;;;;;7.28;1.85;;;4.00;99.90;;;;;;5095415;27;20043;-78
2023/04/02 00:46:45;;;;;;;5.15;2.63;;;3.00;99.90;;;;;;5094572;27;20143;-78
2023/04/02 00:49:38;;;;;;;5.65;2.17;;;4.00;99.90;;;;;;5078738;27;20043;-78
2023/04/02 00:52:09;;;;;;;6.83;1.60;;;3.00;99.90;;;;;;5094537;27;20129;-78
2023/04/02 00:55:02;;;;;;;7.95;2.15;;;2.90;99.90;;;;;;5111561;27;20055;-78
2023/04/02 00:57:28;;;;;;;5.70;1.73;;;2.90;99.90;;;;;;5068227;27;20043;-78
2023/04/02 01:00:06;;;;;;;11.00;2.13;;;2.80;99.90;;;;;;5094866;27;20109;-78
2023/04/02 01:02:34;;;;;;;7.68;1.95;;;3.50;99.90;;;;;;5111764;27;20051;-78
2023/04/02 01:05:18;;;;;;;5.60;2.10;;;2.80;99.90;;;;;;5094309;27;20051;-78
2023/04/02 01:08:10;;;;;;;6.10;1.52;;;4.00;99.90;;;;;;5111567;27;20046;-78
2023/04/02 01:10:53;;;;;;;8.10;1.67;;;2.80;99.90;;;;;;5111979;27;20130;-78
2023/04/02 01:13:23;;;;;;;10.00;2.20;;;2.70;99.90;;;;;;5110970;27;20043;-78
2023/04/02 01:16:05;;;;;;;7.60;1.73;;;2.70;99.90;;;;;;5094494;27;20043;-78
2023/04/02 01:18:45;;;;;;;5.17;1.73;;;2.70;99.90;;;;;;5112037;27;20370;-79
2023/04/02 01:21:16;;;;;;;5.38;1.65;;;2.60;99.90;;;;;;5110598;27;20047;-78
2023/04/02 01:23:58;;;;;;;5.10;1.10;;;2.60;99.90;;;;;;5095067;27;20371;-78
2023/04/02 01:27:00;;;;;;;8.63;1.70;;;2.60;99.90;;;;;;5093861;27;20050;-78
2023/04/02 01:29:57;;;;;;;5.60;1.27;;;2.50;99.90;;;;;;5094313;27;20397;-78
2023/04/02 01:32:26;;;;;;;4.65;1.33;;;2.50;99.90;;;;;;5110287;27;20054;-78
2023/04/02 01:34:53;;;;;;;3.85;1.58;;;2.50;99.90;;;;;;5110648;27;20039;-78
2023/04/02 01:37:35;;;;;;;6.57;1.52;;;2.50;99.90;;;;;;5110950;27;20047;-78
2023/04/02 01:40:16;;;;;;;9.02;1.63;;;2.40;99.90;;;;;;5111681;27;20146;-78
2023/04/02 01:43:00;;;;;;;7.72;1.55;;;2.40;99.90;;;;;;5110622;27;20058;-77
2023/04/02 01:45:27;;;;;;;2.30;1.10;;;2.40;99.90;;;;;;5110523;27;20450;-77
2023/04/02 01:47:54;;;;;;;6.07;1.50;;;2.30;99.90;;;;;;5093901;27;20137;-77
2023/04/02 01:50:25;;;;;;;3.75;1.38;;;2.30;99.90;;;;;;5110387;27;20078;-76
2023/04/02 01:52:56;;;;;;;6.93;1.70;;;2.30;99.90;;;;;;5093844;27;20542;-76
2023/04/02 01:55:41;;;;;;;3.75;1.52;;;2.30;99.90;;;;;;5109712;27;20134;-76
2023/04/02 01:58:10;;;;;;;2.03;0.88;;;2.30;99.90;;;;;;5110485;27;20096;-77
2023/04/02 02:00:46;;;;;;;2.65;0.85;;;2.30;99.90;;;;;;5093168;27;20039;-77
2023/04/02 02:03:12;;;;;;;3.53;1.30;;;2.20;99.90;;;;;;5093099;27;20075;-77
2023/04/02 02:05:38;;;;;;;4.50;1.38;;;2.20;99.90;;;;;;5111155;27;20101;-77
2023/04/02 02:08:14;;;;;;;7.13;0.90;;;2.20;99.90;;;;;;5093407;27;20501;-77
2023/04/02 02:10:40;;;;;;;5.13;1.13;;;2.40;99.90;;;;;;5093808;27;20820;-77
2023/04/02 02:13:10;;;;;;;9.98;1.92;;;2.10;99.90;;;;;;5092734;27;20050;-77
2023/04/02 02:15:35;;;;;;;2.80;1.30;;;2.10;99.90;;;;;;5110010;27;20562;-77
2023/04/02 02:18:04;;;;;;;4.55;1.05;;;2.10;99.90;;;;;;5110036;27;20130;-76
2023/04/02 02:20:32;;;;;;;4.72;1.38;;;2.10;99.90;;;;;;5093155;27;20031;-76
2023/04/02 02:22:59;;;;;;;7.53;1.00;;;2.00;99.90;;;;;;5110842;27;20115;-77
2023/04/02 02:25:29;;;;;;;8.05;1.33;;;2.00;99.90;;;;;;5092927;27;20068;-76
2023/04/02 02:28:09;;;;;;;12.98;1.13;;;2.00;99.90;;;;;;5110273;27;20054;-77
2023/04/02 02:30:43;;;;;;;9.50;1.20;;;1.90;99.90;;;;;;5110054;27;20454;-77
2023/04/02 02:33:22;;;;;;;4.15;1.48;;;3.20;99.90;;;;;;5109634;27;20073;-77
2023/04/02 02:35:51;;;;;;;9.02;1.60;;;1.90;99.90;;;;;;5110107;27;20130;-76
2023/04/02 02:38:39;;;;;;;7.40;1.17;;;2.30;99.90;;;;;;5092115;27;20086;-77
2023/04/02 02:41:34;;;;;;;3.30;1.15;;;2.00;99.90;;;;;;5109665;27;20047;-77
2023/04/02 02:44:13;;;;;;;7.75;1.27;;;1.80;99.90;;;;;;5092693;27;20057;-76
2023/04/02 02:47:10;;;;;;;6.65;1.23;;;1.80;99.90;;;;;;5109069;27;20050;-77
2023/04/02 02:49:41;;;;;;;3.72;0.88;;;1.80;99.90;;;;;;5128249;27;20047;-77
2023/04/02 02:52:18;;;;;;;3.03;1.00;;;1.70;99.90;;;;;;5092348;27;20043;-76
2023/04/02 02:54:48;;;;;;;2.17;0.77;;;1.70;99.90;;;;;;5109218;27;20047;-77
2023/04/02 02:57:20;;;;;;;4.45;1.42;;;1.70;99.90;;;;;;5108597;27;20396;-77
2023/04/02 02:59:46;;;;;;;7.40;1.63;;;1.70;99.90;;;;;;5091736;27;20046;-77
2023/04/02 03:02:14;;;;;;;5.43;1.05;;;1.70;99.90;;;;;;5092890;27;20129;-77
2023/04/02 03:04:45;;;;;;;4.55;1.25;;;1.30;99.90;;;;;;5109170;27;20126;-76
2023/04/02 03:07:15;;;;;;;4.43;1.17;;;2.80;99.90;;;;;;5109118;27;20035;-76
2023/04/02 03:10:13;;;;;;;3.72;1.15;;;1.70;99.90;;;;;;5075757;27;20471;-76
2023/04/02 03:13:07;;;;;;;7.95;1.10;;;1.70;99.90;;;;;;5101957;27;20509;-77
2023/04/02 03:16:27;;;;;;;4.68;0.88;;;1.70;99.90;;;;;;5108770;27;20498;-76
2023/04/02 03:19:15;;;;;;;5.80;1.83;;;1.60;99.90;;;;;;5007904;28;20128;-76
2023/04/02 03:21:55;;;;;;;6.22;1.20;;;1.60;99.90;;;;;;5103110;27;20560;-77
2023/04/02 03:24:28;;;;;;;5.18;0.95;;;1.60;99.90;;;;;;5108874;27;20050;-77
2023/04/02 03:27:12;;;;;;;5.15;1.10;;;1.60;99.90;;;;;;5092056;27;20035;-77
2023/04/02 03:29:48;;;;;;;7.00;1.20;;;1.60;99.90;;;;;;5108459;27;20520;-77
2023/04/02 03:32:24;;;;;;;5.18;1.08;;;1.60;99.90;;;;;;5092098;27;20043;-77
2023/04/02 03:35:22;;;;;;;7.05;1.75;;;1.60;99.90;;;;;;5108902;27;20116;-77
2023/04/02 03:37:57;;;;;;;8.85;1.10;;;1.60;99.90;;;;;;5107451;27;20054;-76
2023/04/02 03:40:41;;;;;;;2.97;1.08;;;1.50;99.90;;;;;;5109034;27;20309;-77
2023/04/02 03:43:20;;;;;;;7.97;1.40;;;1.50;99.90;;;;;;5108305;27;20330;-76
2023/04/02 03:45:56;;;;;;;6.20;0.95;;;2.60;99.90;;;;;;5109198;27;20508;-76
2023/04/02 03:48:45;;;;;;;6.18;1.83;;;1.50;99.90;;;;;;5127272;27;20107;-77
2023/04/02 03:51:22;;;;;;;10.18;1.15;;;1.50;99.90;;;;;;5108077;27;20066;-76
2023/04/02 03:53:48;;;;;;;2.72;0.70;;;1.50;99.90;;;;;;5108874;27;20507;-76
2023/04/02 03:56:38;;;;;;;5.35;1.23;;;1.40;99.90;;;;;;5091459;27;20347;-77
2023/04/02 03:59:30;;;;;;;6.25;1.08;;;1.60;99.90;;;;;;5108436;28;20063;-76
2023/04/02 04:02:20;;;;;;;4.10;1.13;;;1.40;99.90;;;;;;5108851;27;20039;-76
2023/04/02 04:04:49;;;;;;;3.78;1.17;;;1.40;99.90;;;;;;5107966;28;20086;-77
2023/04/02 04:07:38;;;;;;;2.35;0.73;;;1.50;99.90;;;;;;5107834;28;20478;-77
2023/04/02 04:10:06;;;;;;;3.88;1.00;;;1.40;99.90;;;;;;5108926;28;20086;-77
2023/04/02 04:12:41;;;;;;;2.63;1.00;;;1.30;99.90;;;;;;5107418;28;20122;-77
2023/04/02 04:15:18;;;;;;;8.30;1.30;;;1.30;99.90;;;;;;5127189;28;20137;-77
2023/04/02 04:17:53;;;;;;;5.68;1.67;;;1.30;99.90;;;;;;5108071;28;20122;-77
2023/04/02 04:20:49;;;;;;;6.07;1.00;;;1.30;99.90;;;;;;5108267;28;20452;-77
2023/04/02 04:23:24;;;;;;;4.97;1.75;;;1.30;99.90;;;;;;5088331;28;20086;-77
2023/04/02 04:26:04;;;;;;;2.78;1.17;;;2.00;99.90;;;;;;5108151;28;20070;-77
2023/04/02 04:28:58;;;;;;;9.50;1.45;;;1.30;99.90;;;;;;5107909;28;20053;-77
2023/04/02 04:31:48;;;;;;;5.13;0.90;;;1.30;99.90;;;;;;5108779;28;20517;-77
2023/04/02 04:34:41;;;;;;;3.22;0.77;;;1.30;99.90;;;;;;5090969;28;20422;-77
2023/04/02 04:37:24;;;;;;;8.05;0.90;;;1.20;99.90;;;;;;5108273;28;20058;-76
2023/04/02 04:40:10;;;;;;;4.80;1.10;;;1.30;99.90;;;;;;5091785;28;20050;-76
2023/04/02 04:42:39;;;;;;;8.70;1.38;;;1.30;99.90;;;;;;5107222;28;20124;-77
2023/04/02 04:45:15;;;;;;;5.88;1.15;;;1.30;99.90;;;;;;5108600;28;20390;-78
2023/04/02 04:47:48;;;;;;;6.65;0.95;;;1.40;99.90;;;;;;5107924;28;20047;-79
2023/04/02 04:50:28;;;;;;;;;;;1.30;99.90;;;;;;5108720;28;20195;-79
2023/04/02 04:52:53;;;;;;;4.20;1.05;;;1.20;99.90;;;;;;5091217;28;19919;-77
2023/04/02 04:55:31;;;;;;;5.47;1.27;;;1.50;99.90;;;;;;5107228;28;20352;-76
2023/04/02 04:58:02;;;;;;;5.10;1.00;;;0.80;99.90;;;;;;5091077;28;20051;-76
2023/04/02 05:00:41;;;;;;;9.40;0.80;;;2.00;99.90;;;;;;5090679;28;20116;-76
2023/04/02 05:03:20;;;;;;;8.13;1.08;;;1.20;99.90;;;;;;5107438;28;20061;-77
2023/04/02 05:05:46;;;;;;;5.47;2.10;;;1.20;99.90;;;;;;5091239;28;20035;-77
2023/04/02 05:08:26;;;;;;;3.03;1.00;;;1.20;99.90;;;;;;5125814;28;20481;-77
2023/04/02 05:10:58;;;;;;;4.88;1.35;;;2.50;99.90;;;;;;5107857;28;20047;-77
2023/04/02 05:13:32;;;;;;;6.30;1.10;;;1.20;99.90;;;;;;5126124;28;20485;-77
2023/04/02 05:16:16;;;;;;;6.28;0.73;;;1.20;99.90;;;;;;5090245;28;20047;-77
2023/04/02 05:18:45;;;;;;;2.30;0.95;;;1.20;99.90;;;;;;5108179;28;20043;-77
2023/04/02 05:21:37;;;;;;;2.92;1.27;;;1.20;99.90;;;;;;5093713;27;20122;-77
2023/04/02 05:24:22;;;;;;;2.13;0.80;;;1.20;99.90;;;;;;5111055;27;20078;-77
2023/04/02 05:26:49;;;;;;;5.05;1.00;;;1.20;99.90;;;;;;5111368;27;20078;-77
2023/04/02 05:29:25;;;;;;;5.13;1.42;;;1.20;99.90;;;;;;5110566;27;20104;-77
2023/04/02 05:32:00;;;;;;;8.45;1.33;;;2.70;99.90;;;;;;5111819;27;20050;-77
2023/04/02 05:34:34;;;;;;;2.63;0.75;;;1.30;99.90;;;;;;5110648;27;20121;-77
2023/04/02 05:37:00;;;;;;;5.82;1.05;;;1.30;99.90;;;;;;5110797;27;20047;-77
2023/04/02 05:39:27;;;;;;;3.08;0.98;;;1.20;99.90;;;;;;5110989;27;20497;-76
2023/04/02 05:42:03;;;;;;;5.72;1.33;;;2.50;99.90;;;;;;5110643;27;20058;-77
2023/04/02 05:44:35;;;;;;;3.22;0.93;;;1.40;99.90;;;;;;5111641;27;20043;-76
2023/04/02 05:47:17;;;;;;;4.75;1.02;;;1.40;99.90;;;;;;5110533;27;20398;-77
2023/04/02 05:49:48;;;;;;;5.57;1.20;;;1.40;99.90;;;;;;5110571;27;20046;-78
2023/04/02 05:52:29;;;;;;;5.32;1.45;;;1.40;99.90;;;;;;5110852;27;20068;-79
2023/04/02 05:55:18;;;;;;;2.10;0.70;;;1.50;99.90;;;;;;5093150;27;20051;-77
2023/04/02 05:57:50;;;;;;;8.13;1.05;;;1.60;99.90;;;;;;5063636;27;20047;-77
2023/04/02 06:00:47;;;;;;;11.10;1.15;;;1.60;99.90;;;;;;5110298;27;20039;-78
2023/04/02 06:03:22;;;;;;;3.90;1.17;;;1.70;99.90;;;;;;5058974;27;20811;-77
2023/04/02 06:05:51;;;;;;;5.93;1.13;;;1.70;99.90;;;;;;5111193;27;20040;-78
2023/04/02 06:08:23;;;;;;;3.00;0.90;;;2.60;99.90;;;;;;5092559;27;20038;-78
2023/04/02 06:11:01;;;;;;;4.18;1.30;;;1.80;99.90;;;;;;5110198;27;20131;-78
2023/04/02 06:13:27;;;;;;;5.13;0.75;;;1.80;99.90;;;;;;5110291;27;20047;-78
2023/04/02 06:15:53;;;;;;;5.05;1.17;;;1.90;99.90;;;;;;5092838;27;20501;-78
2023/04/02 06:18:27;;;;;;;2.38;0.98;;;1.90;99.90;;;;;;5110511;27;20043;-78
2023/04/02 06:20:54;;;;;;;5.25;1.27;;;1.90;99.90;;;;;;5109758;27;20099;-78
2023/04/02 06:23:52;;;;;;;4.50;0.80;;;2.00;99.90;;;;;;5076974;27;20454;-78
2023/04/02 06:26:17;;;;;;;5.50;1.27;;;2.10;99.90;;;;;;5088127;27;20094;-82
2023/04/02 06:29:04;;;;;;;4.97;1.00;;;2.20;99.90;;;;;;5109686;27;20149;-81
2023/04/02 06:31:57;;;;;;;5.95;1.10;;;2.20;99.90;;;;;;5109808;27;20094;-80
2023/04/02 06:34:25;;;;;;;5.37;0.87;;;2.30;99.90;;;;;;5109494;27;20043;-80
2023/04/02 06:36:56;;;;;;;6.32;0.98;;;2.40;99.90;;;;;;5109848;27;20039;-78
2023/04/02 06:39:24;;;;;;;5.25;1.00;;;2.50;99.90;;;;;;5110374;27;20046;-78
2023/04/02 06:42:06;;;;;;;5.82;1.02;;;2.50;99.90;;;;;;5092317;27;20042;-78
2023/04/02 06:44:35;;;;;;;7.63;0.98;;;2.60;99.90;;;;;;5110021;27;20051;-77
2023/04/02 06:47:23;;;;;;;6.93;0.93;;;2.70;99.90;;;;;;5092106;27;20228;-78
2023/04/02 06:50:04;;;;;;;2.70;0.65;;;2.90;99.90;;;;;;5109482;27;20053;-78
2023/04/02 06:52:54;;;;;;;5.10;1.15;;;3.00;99.90;;;;;;5109606;27;20498;-78
2023/04/02 06:55:19;;;;;;;4.00;0.68;;;4.00;99.90;;;;;;5108109;27;20062;-76
2023/04/02 06:57:48;;;;;;;5.50;1.30;;;4.30;99.90;;;;;;5092421;27;20421;-77
2023/04/02 07:00:40;;;;;;;5.03;1.08;;;4.20;99.90;;;;;;5109016;27;20083;-80
2023/04/02 07:03:13;;;;;;;5.43;1.42;;;3.20;99.90;;;;;;5108886;27;20054;-77
2023/04/02 07:05:39;;;;;;;7.05;1.17;;;3.30;99.90;;;;;;5109536;27;20051;-77
2023/04/02 07:08:05;;;;;;;2.97;0.77;;;3.40;99.90;;;;;;5091541;27;20077;-77
2023/04/02 07:10:31;;;;;;;4.28;0.90;;;3.50;99.90;;;;;;5092338;27;20039;-80
2023/04/02 07:12:56;;;;;;;7.25;0.75;;;3.60;99.90;;;;;;5091835;27;20058;-79
2023/04/02 07:15:24;;;;;;;1.52;0.60;;;3.80;99.90;;;;;;5091987;27;20101;-78
2023/04/02 07:17:50;;;;;;;6.22;1.35;;;3.90;99.90;;;;;;5108995;27;20058;-78
2023/04/02 07:20:29;;;;;;;2.72;0.80;;;4.10;99.90;;;;;;5091892;27;20375;-78
2023/04/02 07:22:55;;;;;;;4.93;0.75;;;4.80;99.90;;;;;;5109643;27;20096;-78
2023/04/02 07:25:22;;;;;;;3.35;0.77;;;4.20;99.90;;;;;;5126907;27;20061;-81
2023/04/02 07:27:49;;;;;;;7.13;2.03;;;4.30;99.90;;;;;;5108868;27;20039;-80
2023/04/02 07:30:15;;;;;;;3.88;0.90;;;4.30;99.90;;;;;;5074416;27;20047;-80
2023/04/02 07:32:41;;;;;;;6.78;1.25;;;4.30;99.90;;;;;;5074893;27;20054;-77
2023/04/02 07:35:09;;;;;;;1.25;0.50;;;4.70;99.90;;;;;;5091701;27;20229;-77
2023/04/02 07:37:36;;;;;;;7.05;1.02;;;4.50;99.90;;;;;;5091000;27;20465;-78
2023/04/02 07:40:02;;;;;;;5.65;0.60;;;4.60;99.90;;;;;;5092132;27;20122;-78
2023/04/02 07:42:28;;;;;;;2.53;0.82;;;4.70;99.90;;;;;;5090740;27;20389;-83
2023/04/02 07:44:54;;;;;;;4.10;1.08;;;4.80;99.90;;;;;;5108937;27;20035;-78
2023/04/02 07:47:20;;;;;;;7.50;1.58;;;5.00;99.90;;;;;;5108135;27;20039;-78
2023/04/02 07:49:45;;;;;;;3.58;0.80;;;5.10;99.90;;;;;;5091447;27;20035;-78
2023/04/02 07:52:11;;;;;;;3.90;0.70;;;5.20;99.90;;;;;;5091479;27;20039;-77
2023/04/02 07:54:37;;;;;;;6.00;0.85;;;5.40;99.90;;;;;;5074318;27;20075;-77
2023/04/02 07:57:03;;;;;;;6.93;1.10;;;6.00;99.90;;;;;;5091802;28;20204;-78
2023/04/02 07:59:28;;;;;;;4.68;0.90;;;5.60;99.90;;;;;;5090703;28;20050;-78
2023/04/02 08:01:54;;;;;;;8.60;1.50;;;5.70;99.90;;;;;;5092150;27;20075;-78
2023/04/02 08:04:21;;;;;;;4.00;0.70;;;6.10;99.90;;;;;;5091325;28;20494;-78
2023/04/02 08:06:48;;;;;;;6.00;0.80;;;5.90;99.90;;;;;;5091140;28;20039;-78
2023/04/02 08:09:15;;;;;;;6.72;1.60;;;5.80;99.90;;;;;;5091565;28;20081;-78
2023/04/02 08:11:41;;;;;;;4.75;0.90;;;5.80;99.90;;;;;;5091058;28;20512;-78
2023/04/02 08:14:10;;;;;;;3.70;1.08;;;5.80;99.90;;;;;;5108452;28;20051;-77
2023/04/02 08:16:48;;;;;;;4.53;0.77;;;5.90;99.90;;;;;;5107799;28;20047;-78
2023/04/02 08:19:14;;;;;;;3.13;0.70;;;6.10;99.90;;;;;;5091841;28;20162;-78
2023/04/02 08:21:40;;;;;;;7.80;2.22;;;6.10;99.90;;;;;;5108173;28;20550;-78
2023/04/02 08:24:06;;;;;;;2.50;0.70;;;6.40;99.90;;;;;;5126712;28;20043;-78
2023/04/02 08:26:32;;;;;;;3.00;0.70;;;6.20;99.90;;;;;;5108303;28;20087;-78
2023/04/02 08:28:58;;;;;;;4.88;0.95;;;6.20;99.90;;;;;;5107244;28;20055;-78
2023/04/02 08:31:23;;;;;;;3.47;0.90;;;6.30;99.90;;;;;;5091770;28;20096;-77
2023/04/02 08:33:49;;;;;;;2.47;1.23;;;6.30;99.90;;;;;;5090390;28;20514;-78
2023/04/02 08:36:18;;;;;;;7.80;1.02;;;6.40;99.90;;;;;;5108449;28;20035;-78
2023/04/02 08:38:45;;;;;;;4.65;1.00;;;6.50;99.90;;;;;;5091234;28;20062;-78
2023/04/02 08:41:26;;;;;;;1.75;0.77;;;6.60;99.90;;;;;;5091194;28;20540;-78
2023/04/02 08:44:07;;;;;;;2.45;0.88;;;6.70;99.90;;;;;;5091570;28;20040;-78
2023/04/02 08:46:47;;;;;;;5.60;0.70;;;6.80;99.90;;;;;;5107328;28;20043;-78
2023/04/02 08:49:17;;;;;;;3.22;0.80;;;6.80;99.90;;;;;;5107940;28;20043;-79
2023/04/02 08:51:44;;;;;;;2.85;0.75;;;7.20;99.90;;;;;;5107875;28;20091;-79
2023/04/02 08:54:27;;;;;;;3.83;0.70;;;6.80;99.90;;;;;;5108750;27;20043;-78
2023/04/02 08:57:05;;;;;;;2.55;0.50;;;6.80;99.90;;;;;;5094428;27;20047;-79
2023/04/02 08:59:37;;;;;;;2.95;0.80;;;7.00;99.90;;;;;;5089799;28;20040;-78
2023/04/02 09:02:20;;;;;;;2.55;0.47;;;7.10;99.90;;;;;;5107220;28;20589;-79
2023/04/02 09:04:46;;;;;;;3.45;0.63;;;7.30;99.90;;;;;;5107961;28;20494;-79
2023/04/02 09:07:15;;;;;;;5.93;0.80;;;8.50;99.90;;;;;;5106458;28;20089;-78
2023/04/02 09:09:42;;;;;;;4.10;0.70;;;7.90;99.90;;;;;;5091253;28;20032;-78
2023/04/02 09:12:22;;;;;;;7.00;1.00;;;7.80;99.90;;;;;;5106501;28;20047;-79
2023/04/02 09:14:55;;;;;;;8.43;0.98;;;7.60;99.90;;;;;;5106976;28;20093;-79
2023/04/02 09:17:25;;;;;;;5.13;0.85;;;7.80;99.90;;;;;;5106991;28;20050;-78
2023/04/02 09:20:36;;;;;;;4.57;1.50;;;7.90;99.90;;;;;;5106163;28;20132;-78
2023/04/02 09:23:02;;;;;;;3.83;0.73;;;8.00;99.90;;;;;;5085078;28;20059;-79
2023/04/02 09:25:30;;;;;;;5.18;0.80;;;8.20;99.90;;;;;;5108370;28;20044;-79
2023/04/02 09:28:00;;;;;;;3.38;0.60;;;8.30;99.90;;;;;;5106695;28;20043;-78
2023/04/02 09:30:34;;;;;;;5.00;0.55;;;8.50;99.90;;;;;;5108620;28;20043;-78
2023/04/02 09:33:06;;;;;;;3.60;0.40;;;8.70;99.90;;;;;;5107670;28;20490;-79
2023/04/02 09:35:33;;;;;;;3.42;0.57;;;8.80;99.90;;;;;;5108771;28;20051;-78
2023/04/02 09:38:20;;;;;;;5.38;0.80;;;8.90;99.90;;;;;;5105987;28;20541;-79
2023/04/02 09:40:53;;;;;;;2.35;0.55;;;9.00;99.90;;;;;;5106007;28;20067;-79
2023/04/02 09:43:21;;;;;;;5.25;0.65;;;9.00;99.90;;;;;;5089789;28;20126;-80
2023/04/02 09:46:03;;;;;;;2.80;0.40;;;9.10;99.90;;;;;;5106197;28;20432;-80
2023/04/02 09:48:34;;;;;;;4.90;0.80;;;9.20;99.90;;;;;;5107173;28;20077;-80
2023/04/02 09:51:17;;;;;;;3.67;0.47;;;9.70;99.90;;;;;;5105762;28;20076;-80
2023/04/02 09:54:01;;;;;;;3.78;0.40;;;9.40;99.90;;;;;;5105901;28;20040;-79
2023/04/02 09:56:27;;;;;;;2.50;0.40;;;9.40;99.90;;;;;;5089761;28;20054;-80
2023/04/02 09:59:11;;;;;;;2.22;0.43;;;9.30;99.90;;;;;;5088208;28;20065;-80
2023/04/02 10:02:03;;;;;;;3.72;0.40;;;9.50;99.90;;;;;;5106169;28;20130;-80
2023/04/02 10:04:37;;;;;;;3.22;0.60;;;9.60;99.90;;;;;;5106806;28;20040;-79
2023/04/02 10:07:07;;;;;;;5.25;0.50;;;9.70;99.90;;;;;;5105092;28;20054;-80
2023/04/02 10:09:36;;;;;;;2.33;0.50;;;9.80;99.90;;;;;;5106662;28;20035;-80
2023/04/02 10:12:05;;;;;;;3.80;0.52;;;9.80;99.90;;;;;;5105233;28;20134;-79
2023/04/02 10:14:42;;;;;;;4.18;0.77;;;9.90;99.90;;;;;;5089152;28;20043;-80
2023/04/02 10:17:23;;;;;;;1.95;0.43;;;9.90;99.90;;;;;;5088741;28;20056;-80
2023/04/02 10:20:05;;;;;;;0.95;0.30;;;10.00;99.90;;;;;;5104736;28;20055;-79
2023/04/02 10:22:31;;;;;;;3.47;0.65;;;10.10;99.90;;;;;;5106512;28;20046;-80
2023/04/02 10:24:58;;;;;;;3.88;1.23;;;10.20;99.90;;;;;;5104873;28;20119;-80
2023/04/02 10:27:53;;;;;;;4.93;0.43;;;10.30;99.90;;;;;;5106271;28;20401;-80
2023/04/02 10:30:50;;;;;;;2.38;0.40;;;10.40;99.90;;;;;;5075459;28;20524;-80
2023/04/02 10:33:36;;;;;;;3.63;0.52;;;10.30;99.90;;;;;;5104766;28;20050;-80
2023/04/02 10:36:18;;;;;;;5.15;0.57;;;10.40;99.90;;;;;;5105382;28;20047;-80
2023/04/02 10:39:07;;;;;;;2.58;0.43;;;10.30;99.90;;;;;;5088965;28;20097;-80
2023/04/02 10:42:08;;;;;;;2.20;0.52;;;10.30;99.90;;;;;;5104531;28;20087;-80
2023/04/02 10:44:57;;;;;;;1.10;0.35;;;9.80;99.90;;;;;;5093181;28;20540;-79
2023/04/02 10:47:32;;;;;;;1.20;0.35;;;10.40;99.90;;;;;;5106723;28;20052;-80
2023/04/02 10:50:12;;;;;;;1.38;0.30;;;10.50;99.90;;;;;;5104492;28;20044;-80
2023/04/02 10:53:02;;;;;;;1.83;0.40;;;10.50;99.90;;;;;;5105659;28;20050;-80
2023/04/02 10:55:32;;;;;;;2.55;0.50;;;10.60;99.90;;;;;;5088104;28;20048;-79
2023/04/02 10:58:04;;;;;;;2.17;0.30;;;10.60;99.90;;;;;;5114479;27;20141;-79
2023/04/02 11:00:34;;;;;;;4.53;0.43;;;10.60;99.90;;;;;;5109173;27;20047;-80
2023/04/02 11:03:06;;;;;;;1.48;0.38;;;10.60;99.90;;;;;;5126075;27;20515;-80
2023/04/02 11:05:47;;;;;;;1.63;0.20;;;10.40;99.90;;;;;;5109083;27;20122;-80
2023/04/02 11:08:22;;;;;;;0.93;0.20;;;10.40;99.90;;;;;;5107990;27;20043;-80
2023/04/02 11:10:55;;;;;;;2.50;0.65;;;10.60;99.90;;;;;;5107844;27;20565;-80
2023/04/02 11:13:56;;;;;;;8.55;1.83;;;10.70;99.90;;;;;;5127197;27;20046;-80
2023/04/02 11:16:22;;;;;;;2.58;0.40;;;10.90;99.90;;;;;;5125565;27;20486;-80
2023/04/02 11:19:13;;;;;;;4.82;0.57;;;11.00;99.90;;;;;;5107536;27;20096;-80
2023/04/02 11:21:54;;;;;;;2.55;0.25;;;10.90;99.90;;;;;;5108156;27;20039;-80
2023/04/02 11:24:30;;;;;;;0.70;0.30;;;10.90;99.90;;;;;;5107513;27;20047;-84
2023/04/02 11:27:10;;;;;;;1.88;0.20;;;10.80;99.90;;;;;;5108921;27;20435;-84
2023/04/02 11:29:58;;;;;;;1.25;0.20;;;10.90;99.90;;;;;;5091171;27;20035;-83
2023/04/02 11:32:30;;;;;;;4.38;0.50;;;11.00;99.70;;;;;;5091621;27;20054;-85
2023/04/02 11:34:57;;;;;;;4.20;0.30;;;11.10;99.90;;;;;;5109394;27;20046;-77
2023/04/02 11:37:36;;;;;;;2.80;0.30;;;11.10;99.90;;;;;;5113872;27;20140;-79
2023/04/02 11:40:12;;;;;;;3.72;0.30;;;11.30;99.90;;;;;;5132782;27;20054;-78
2023/04/02 11:42:51;;;;;;;1.73;0.40;;;11.30;98.90;;;;;;5112930;27;20599;-78
2023/04/02 11:45:20;;;;;;;1.05;0.35;;;11.40;99.70;;;;;;5113940;27;20100;-77
2023/04/02 11:48:02;;;;;;;2.10;0.40;;;11.60;99.90;;;;;;5131209;27;20107;-77
2023/04/02 11:50:38;;;;;;;1.20;0.30;;;11.60;98.80;;;;;;5112488;27;20112;-77
2023/04/02 11:53:15;;;;;;;2.03;0.43;;;11.60;99.50;;;;;;5111644;27;20057;-78
2023/04/02 11:55:42;;;;;;;2.63;0.57;;;11.60;98.30;;;;;;5109727;27;20043;-78
2023/04/02 11:58:26;;;;;;;1.58;0.47;;;11.50;98.70;;;;;;5130279;27;20059;-81
2023/04/02 12:01:24;;;;;;;3.03;0.88;;;11.30;97.70;;;;;;5128588;27;20055;-79
2023/04/02 12:04:25;;;;;;;1.98;0.63;;;11.30;96.90;;;;;;5129243;27;20092;-78
2023/04/02 12:06:58;;;;;;;1.60;0.43;;;11.30;96.40;;;;;;5075779;27;20047;-78
2023/04/02 12:09:49;;;;;;;0.55;0.22;;;11.40;98.10;;;;;;5109865;28;20051;-79
2023/04/02 12:12:38;;;;;;;2.35;0.63;;;11.50;98.10;;;;;;5103548;28;20138;-79
2023/04/02 12:15:30;;;;;;;1.75;0.30;;;11.60;95.20;;;;;;5117141;28;20059;-79
2023/04/02 12:18:05;;;;;;;4.53;0.45;;;11.70;97.10;;;;;;5128387;28;20441;-79
2023/04/02 12:20:31;;;;;;;2.10;0.40;;;11.70;97.00;;;;;;5111421;28;20493;-83
2023/04/02 12:22:57;;;;;;;0.85;0.20;;;11.80;97.70;;;;;;5111124;28;20051;-79
2023/04/02 12:25:31;;;;;;;2.90;0.50;;;11.80;97.20;;;;;;5109736;28;20043;-77
2023/04/02 12:28:09;;;;;;;2.30;0.25;;;11.80;97.40;;;;;;5111705;27;20043;-80
2023/04/02 12:30:38;;;;;;;0.68;0.22;;;11.80;96.40;;;;;;5132136;27;20047;-78
2023/04/02 12:33:26;;;;;;;2.03;0.63;;;11.90;97.50;;;;;;5115872;27;20046;-77
2023/04/02 12:35:56;;;;;;;4.57;2.25;;;12.00;96.10;;;;;;5098211;27;20043;-78
2023/04/02 12:38:28;;;;;;;2.83;0.43;;;12.10;97.30;;;;;;5113844;27;20054;-79
2023/04/02 12:40:55;;;;;;;1.35;0.50;;;12.20;96.00;;;;;;5134269;27;20426;-78
2023/04/02 12:43:25;;;;;;;3.28;0.30;;;12.10;96.90;;;;;;5131638;27;20060;-78
2023/04/02 12:45:57;;;;;;;1.58;0.20;;;12.10;96.80;;;;;;5115570;27;20126;-77
2023/04/02 12:48:24;;;;;;;2.15;0.70;;;12.20;97.30;;;;;;5114800;27;20096;-78
2023/04/02 12:50:50;;;;;;;4.63;0.40;;;12.40;96.70;;;;;;5132842;27;20362;-80
2023/04/02 12:53:36;;;;;;;5.85;0.50;;;12.50;96.50;;;;;;5115673;27;20047;-80
2023/04/02 12:56:03;;;;;;;2.13;0.50;;;12.50;94.80;;;;;;5113010;27;20058;-78
2023/04/02 12:58:29;;;;;;;0.85;0.30;;;12.40;95.50;;;;;;5114616;27;20090;-78
2023/04/02 13:01:17;;;;;;;4.63;0.52;;;12.30;95.90;;;;;;5095296;27;20047;-79
2023/04/02 13:03:43;;;;;;;2.42;0.40;;;12.30;95.20;;;;;;5113051;27;20051;-77
2023/04/02 13:06:35;;;;;;;5.35;1.17;;;12.30;96.50;;;;;;5113659;27;20483;-80
2023/04/02 13:09:04;;;;;;;1.70;0.75;;;12.30;95.20;;;;;;5107014;27;20138;-80
2023/04/02 13:11:40;;;;;;;3.92;0.88;;;12.30;96.10;;;;;;5113644;27;20050;-81
2023/04/02 13:14:25;;;;;;;2.50;0.60;;;12.20;95.30;;;;;;5112422;27;20051;-81
2023/04/02 13:16:51;;;;;;;4.05;0.60;;;12.20;96.00;;;;;;5111676;27;20043;-81
2023/04/02 13:19:16;;;;;;;2.33;0.43;;;12.30;96.80;;;;;;5113876;27;20060;-81
2023/04/02 13:21:43;;;;;;;2.80;0.38;;;12.30;96.70;;;;;;5111120;27;20400;-81
2023/04/02 13:24:23;;;;;;;2.15;0.50;;;12.20;96.20;;;;;;5113595;27;20044;-82
2023/04/02 13:26:52;;;;;;;2.35;0.45;;;12.10;95.40;;;;;;5130524;27;20501;-83
2023/04/02 13:29:22;;;;;;;6.15;1.70;;;12.00;96.10;;;;;;5112903;27;20095;-85
2023/04/02 13:31:48;;;;;;;1.00;0.45;;;11.90;95.90;;;;;;5131830;27;20116;-84
2023/04/02 13:34:13;;;;;;;1.75;0.30;;;11.70;95.90;;;;;;5110866;27;20500;-84
2023/04/02 13:36:39;;;;;;;1.05;0.50;;;11.80;96.20;;;;;;5113573;27;20163;-80
2023/04/02 13:39:05;;;;;;;0.68;0.30;;;11.60;95.70;;;;;;5111051;27;20047;-80